Share

Soldotna, AK

RAWS SOLDOTNA AKKKS AK US (MSDFA2) Elev 154 ft | 60.50 °N, 151.01 °W | Change Station

Current weather conditions updated 43 minutes ago

Clear
Clear
31 °F
Feels Like 31 °F
N
1
Wind Variable Wind from NE
Gusts 3.0 mph
Sunrise 6:33 AM
Sunset 9:34 PM
Moon Waning Gibbous

Today is forecast to be nearly the same temperature as yesterday.

Pressure 29.60 in
Visibility 10.0 miles
Clouds Clear
Windchill 31 °F
Dew Point 29 °F
Humidity 92%
Rainfall -9999.00 in
Snow Depth Not available.
UV 0 out of 16
Pollen Not available.
Air Quality Not available.
Flu Activity Sporadic
METAR PASX 190856Z AUTO 00000KT 10SM CLR M01/M03 A2960 RMK AO1 54000

More Conditions Fewer Conditions

Pressure 29.60 in
Visibility 10.0 miles
Clouds Clear
Windchill 31 °F
Dew Point 29 °F
Humidity 92%
Rainfall -9999.00 in
Snow Depth Not available.
UV 0 out of 16
Pollen Not available.
Air Quality Not available.
Flu Activity Sporadic
METAR PASX 190856Z AUTO 00000KT 10SM CLR M01/M03 A2960 RMK AO1 54000

More Conditions Fewer Conditions

10-Day Weather Forecast

Almanac

Astronomy

Apr. 19, 2014 Rise Set
Actual Time 6:33 AM AKDT 9:34 PM AKDT
Civil Twilight 5:44 AM AKDT 10:24 PM AKDT
Nautical Twilight 4:37 AM AKDT 11:32 PM AKDT
Astronomical Twilight 2:35 AM AKDT 1:30 AM AKDT
Moon 2:07 AM AKDT 9:22 AM AKDT
Length of Visible Light 16h 39m
Length of Day
15h 01m
Tomorrow will be 5m 30s longer.
Waning Gibbous, 81% of the Moon is Illuminated
Today
Waning Gibbous
Apr 22
Last Quarter
Apr 29
New
May 6
First Quarter
May 14
Full

Today's Extremes

State Highs State Lows

Community

  • Sunset Silhouettes
    Sunset Silhouettes
  • FL sunset Perico Isle
    FL sunset Perico Isle
  • Cloudy spring view
    Cloudy spring view
  • Old barn
    Old barn
  • What's for Lunch?
    What's for Lunch?

WunderPhotos

Upload Photos

1,702,668 photos uploaded!

WunderBlogs® & News

Nearby

Snow Depth

Station Depth Elevation
Cooper Lake 22 in 1200 ft
MF Bradley River 22 in 2300 ft
Summit Creek 19 in 1400 ft
Mcneil Canyon 9 in 1320 ft
Grouse Creek Divide 26 in 700 ft

Coastal Water Temperatures

Place Temperature
No Stations Reporting

Earthquake Activity

City Distance Mag. Time & Date
No recent earthquake activity has been reported nearby.
Minimum magnitude displayed is 2.5.

Nearby Weather Stations

Station Location Temp. Windchill Dew Point Humidity Wind Precip. Elev Updated Type
RAWS SOLDOTNA AKKKS AK, Soldotna, AK 31 °F 31 °F 29 °F 92% NE  at  1 mph 0.00 in / hr 154 ft 12:27 AM AKDT MADIS
Kenai, Kenai, AK 34.9 °F 35 °F 33 °F 92% NE  at  2.3 mph 0.00 in / hr 75 ft 1:10 AM AKDT Rapid Fire

Show More Stations Show Fewer Stations

What do you think?

We're not finished. Please let us know what you like, what you don't like, and what you are still missing.